createdAt,value
2019-03-03T00:02:49.274Z,32.07
2019-03-03T00:05:39.176Z,33.60
2019-03-03T00:08:28.954Z,35.20
2019-03-03T00:11:18.732Z,35.37
2019-03-03T00:14:08.539Z,34.30
2019-03-03T00:16:38.973Z,32.77
2019-03-03T00:19:28.711Z,34.07
2019-03-03T00:22:18.511Z,34.07
2019-03-03T00:25:08.445Z,34.10
2019-03-03T00:27:38.865Z,34.87
2019-03-03T00:30:28.643Z,32.70
2019-03-03T00:33:18.451Z,32.77
2019-03-03T00:36:08.530Z,35.37
2019-03-03T00:38:57.887Z,34.10
2019-03-03T00:42:06.583Z,34.77
2019-03-03T00:45:15.264Z,31.60
2019-03-03T00:48:23.971Z,32.30
2019-03-03T00:51:32.661Z,31.90
2019-03-03T00:54:41.317Z,32.60
2019-03-03T00:57:49.988Z,31.90
2019-03-03T01:00:58.628Z,31.20
2019-03-03T01:04:07.318Z,30.80
2019-03-03T01:07:15.966Z,30.80
2019-03-03T01:10:05.255Z,33.40
2019-03-03T01:13:14.331Z,31.80
2019-03-03T01:16:23.025Z,30.40
2019-03-03T01:19:31.680Z,27.73
2019-03-03T01:22:29.158Z,27.60
2019-03-03T01:25:18.975Z,25.67
2019-03-03T01:27:49.336Z,26.83
2019-03-03T01:30:39.086Z,26.03
2019-03-03T01:33:28.898Z,25.50
2019-03-03T01:36:18.681Z,24.07
2019-03-03T01:39:08.634Z,25.20
2019-03-03T01:41:39.004Z,24.57
2019-03-03T01:44:28.792Z,25.40
2019-03-03T01:47:18.607Z,23.07
2019-03-03T01:50:09.504Z,25.10
2019-03-03T01:52:59.343Z,24.27
2019-03-03T01:55:49.127Z,24.60
2019-03-03T01:58:57.929Z,23.07
2019-03-03T02:01:47.710Z,23.53
2019-03-03T02:04:37.579Z,25.20
2019-03-03T02:07:27.395Z,23.77
2019-03-03T02:13:19.622Z,22.43
2019-03-03T02:19:05.818Z,21.20
2019-03-03T02:21:55.596Z,21.77
2019-03-03T02:24:45.367Z,20.77
2019-03-03T02:27:35.164Z,21.27
2019-03-03T02:30:25.030Z,20.17
2019-03-03T02:33:14.834Z,20.20
2019-03-03T02:36:04.636Z,21.07
2019-03-03T02:38:54.432Z,19.63
2019-03-03T02:41:44.563Z,20.30
2019-03-03T02:44:34.340Z,20.20
2019-03-03T02:47:24.141Z,19.63
2019-03-03T02:50:14.211Z,20.50
2019-03-03T02:52:44.805Z,19.73
2019-03-03T02:55:34.608Z,20.60
2019-03-03T02:58:24.394Z,20.90
2019-03-03T03:01:33.084Z,20.70
2019-03-03T03:04:22.862Z,20.07
2019-03-03T03:07:31.558Z,18.77
2019-03-03T03:10:40.235Z,21.30
2019-03-03T03:13:48.910Z,21.20
2019-03-03T03:16:57.681Z,21.13
2019-03-03T03:20:06.386Z,21.23
2019-03-03T03:23:15.056Z,19.73
2019-03-03T03:26:23.777Z,21.23
2019-03-03T03:29:02.922Z,20.37
2019-03-03T03:31:51.094Z,21.20
2019-03-03T03:34:35.933Z,20.60
2019-03-03T03:37:44.585Z,22.43
2019-03-03T03:40:53.244Z,18.87
2019-03-03T03:44:02.001Z,20.57
2019-03-03T03:47:10.651Z,19.70
2019-03-03T03:50:07.376Z,19.60
2019-03-03T03:53:05.127Z,19.93
2019-03-03T03:56:13.801Z,20.27
2019-03-03T03:59:22.471Z,18.40
2019-03-03T04:02:31.156Z,19.40
2019-03-03T04:05:39.813Z,19.33
2019-03-03T04:08:20.627Z,17.10
2019-03-03T04:11:10.133Z,18.63
2019-03-03T04:14:18.822Z,17.23
2019-03-03T04:17:27.494Z,16.80
2019-03-03T04:20:36.151Z,16.27
2019-03-03T04:23:36.500Z,15.20
2019-03-03T04:26:35.178Z,14.37
2019-03-03T04:29:43.905Z,13.73
2019-03-03T04:33:11.584Z,14.23
2019-03-03T04:36:01.193Z,14.27
2019-03-03T04:39:09.917Z,12.77
2019-03-03T04:42:18.638Z,12.47
2019-03-03T04:45:27.343Z,12.20
2019-03-03T04:48:26.078Z,11.90
2019-03-03T04:51:04.698Z,12.47
2019-03-03T04:54:02.653Z,11.70
2019-03-03T04:57:00.927Z,11.47
2019-03-03T05:00:09.622Z,11.23
2019-03-03T05:03:18.336Z,10.30
2019-03-03T05:06:27.048Z,9.10
2019-03-03T05:09:35.801Z,9.37
2019-03-03T05:12:44.826Z,9.90
2019-03-03T05:15:53.499Z,9.30
2019-03-03T05:19:02.177Z,8.30
2019-03-03T05:21:52.092Z,9.20
2019-03-03T05:24:41.864Z,7.93
2019-03-03T05:27:31.654Z,7.30
2019-03-03T05:30:21.445Z,6.93
2019-03-03T05:33:11.260Z,6.83
2019-03-03T05:36:01.025Z,6.93
2019-03-03T05:38:50.830Z,5.70
2019-03-03T05:41:40.603Z,5.60
2019-03-03T05:44:30.403Z,4.63
2019-03-03T05:47:20.292Z,5.60
2019-03-03T05:50:10.083Z,5.20
2019-03-03T05:56:03.662Z,4.43
2019-03-03T05:58:53.442Z,5.00
2019-03-03T06:01:43.325Z,4.83
2019-03-03T06:04:33.300Z,3.80
2019-03-03T06:07:23.090Z,3.60
2019-03-03T06:12:51.727Z,4.27
2019-03-03T06:15:41.485Z,5.00
2019-03-03T06:18:31.266Z,4.60
2019-03-03T06:21:01.654Z,4.70
2019-03-03T06:23:51.444Z,4.80
2019-03-03T06:26:41.232Z,5.03
2019-03-03T06:29:31.039Z,5.30
2019-03-03T06:32:20.830Z,4.83
2019-03-03T06:35:10.893Z,5.20
2019-03-03T06:38:00.660Z,5.57
2019-03-03T06:40:50.480Z,5.27
2019-03-03T06:43:26.740Z,5.30
2019-03-03T06:46:16.569Z,5.30
2019-03-03T06:49:06.350Z,5.10
2019-03-03T06:51:56.141Z,5.50
2019-03-03T06:54:45.962Z,6.07
2019-03-03T06:57:35.872Z,6.87
2019-03-03T07:03:28.761Z,6.00
2019-03-03T07:06:18.556Z,5.97
2019-03-03T07:09:08.718Z,5.20
2019-03-03T07:11:39.243Z,5.53
2019-03-03T07:14:29.022Z,5.50
2019-03-03T07:17:18.778Z,5.57
2019-03-03T07:20:11.614Z,5.47
2019-03-03T07:23:01.442Z,5.60
2019-03-03T07:25:51.256Z,5.70
2019-03-03T07:28:21.691Z,5.00
2019-03-03T07:31:11.503Z,5.60
2019-03-03T07:33:45.362Z,6.10
2019-03-03T07:36:35.165Z,6.27
2019-03-03T07:39:25.383Z,6.43
2019-03-03T07:42:15.200Z,5.57
2019-03-03T07:45:05.161Z,5.60
2019-03-03T07:47:55.013Z,6.30
2019-03-03T07:50:44.785Z,5.70
2019-03-03T07:53:34.562Z,5.50
2019-03-03T07:56:24.406Z,5.90
2019-03-03T07:59:14.250Z,5.00
2019-03-03T08:02:04.037Z,5.10
2019-03-03T08:04:34.469Z,5.67
2019-03-03T08:07:24.208Z,5.93
2019-03-03T08:10:14.087Z,5.93
2019-03-03T08:13:09.210Z,5.10
2019-03-03T08:15:47.518Z,5.77
2019-03-03T08:18:18.129Z,6.03
2019-03-03T08:21:08.260Z,6.00
2019-03-03T08:23:58.071Z,5.93
2019-03-03T08:26:47.854Z,5.60
2019-03-03T08:29:18.321Z,5.40
2019-03-03T08:32:08.132Z,5.07
2019-03-03T08:34:57.941Z,4.83
2019-03-03T08:37:47.767Z,5.40
2019-03-03T08:40:37.560Z,4.80
2019-03-03T08:43:39.969Z,5.20
2019-03-03T08:46:30.958Z,5.13
2019-03-03T08:49:09.558Z,4.20
2019-03-03T08:52:12.711Z,3.77
2019-03-03T08:55:21.365Z,4.80
2019-03-03T08:58:30.038Z,4.63
2019-03-03T09:01:19.349Z,5.20
2019-03-03T09:04:15.827Z,5.30
2019-03-03T09:07:24.505Z,5.87
2019-03-03T09:10:33.168Z,5.40
2019-03-03T09:13:41.857Z,5.00
2019-03-03T09:16:50.577Z,6.20
2019-03-03T09:19:49.128Z,4.93
2019-03-03T09:22:57.793Z,5.60
2019-03-03T09:26:06.494Z,5.07
2019-03-03T09:29:15.231Z,4.80
2019-03-03T09:32:23.896Z,4.50
2019-03-03T09:35:30.799Z,4.93
2019-03-03T09:38:39.506Z,4.70
2019-03-03T09:41:47.762Z,4.90
2019-03-03T09:44:56.522Z,4.77
2019-03-03T09:48:05.333Z,4.70
2019-03-03T09:51:14.043Z,5.27
2019-03-03T09:54:22.704Z,5.30
2019-03-03T09:57:31.389Z,5.30
2019-03-03T10:00:40.074Z,5.07
2019-03-03T10:03:48.783Z,5.23
2019-03-03T10:06:57.510Z,4.67
2019-03-03T10:09:48.471Z,5.03
2019-03-03T10:12:57.221Z,5.47
2019-03-03T10:16:05.883Z,4.93
2019-03-03T10:19:14.572Z,5.60
2019-03-03T10:22:23.247Z,5.50
2019-03-03T10:25:31.970Z,4.53
2019-03-03T10:28:40.646Z,4.97
2019-03-03T10:31:49.413Z,3.83
2019-03-03T10:34:58.164Z,3.90
2019-03-03T10:38:06.835Z,3.87
2019-03-03T10:41:15.533Z,3.73
2019-03-03T10:44:04.952Z,2.97
2019-03-03T10:47:13.640Z,2.97
2019-03-03T10:50:22.403Z,3.03
2019-03-03T10:53:31.339Z,2.93
2019-03-03T10:56:40.110Z,2.40
2019-03-03T10:59:54.947Z,2.53
2019-03-03T11:02:46.755Z,2.60
2019-03-03T11:05:53.873Z,2.60
2019-03-03T11:08:58.393Z,3.20
2019-03-03T11:11:53.833Z,3.70
2019-03-03T11:15:02.509Z,2.63
2019-03-03T11:18:11.217Z,2.63
2019-03-03T11:21:19.902Z,2.67
2019-03-03T11:24:28.597Z,2.43
2019-03-03T11:27:37.355Z,2.90
2019-03-03T11:30:38.571Z,2.70
2019-03-03T11:37:06.690Z,2.20
2019-03-03T11:39:52.569Z,2.60
2019-03-03T11:43:01.252Z,2.53
2019-03-03T11:46:09.942Z,2.10
2019-03-03T11:49:18.691Z,2.00
2019-03-03T11:52:27.377Z,2.17
2019-03-03T11:55:36.081Z,1.60
2019-03-03T11:58:44.772Z,2.20
2019-03-03T12:01:43.676Z,1.93
2019-03-03T12:04:33.002Z,2.40
2019-03-03T12:07:41.770Z,1.73
2019-03-03T12:10:31.483Z,2.00
2019-03-03T12:13:40.207Z,1.97
2019-03-03T12:16:46.357Z,1.97
2019-03-03T12:19:55.073Z,1.83
2019-03-03T12:22:55.462Z,1.70
2019-03-03T12:26:04.191Z,1.80
2019-03-03T12:29:12.920Z,2.60
2019-03-03T12:32:21.673Z,2.40
2019-03-03T12:35:30.381Z,1.53
2019-03-03T12:38:39.145Z,1.73
2019-03-03T12:41:39.408Z,1.90
2019-03-03T12:44:48.130Z,1.90
2019-03-03T12:47:43.579Z,2.10
2019-03-03T12:50:52.271Z,2.30
2019-03-03T12:53:58.292Z,1.50
2019-03-03T12:57:07.061Z,2.00
2019-03-03T13:00:15.759Z,1.63
2019-03-03T13:03:24.480Z,2.13
2019-03-03T13:06:33.179Z,2.37
2019-03-03T13:09:41.935Z,1.63
2019-03-03T13:12:42.418Z,1.73
2019-03-03T13:15:31.945Z,1.70
2019-03-03T13:18:40.674Z,1.50
2019-03-03T13:21:49.348Z,1.60
2019-03-03T13:28:01.697Z,2.13
2019-03-03T13:31:10.430Z,1.90
2019-03-03T13:34:19.118Z,2.10
2019-03-03T13:37:27.873Z,2.43
2019-03-03T13:40:22.997Z,1.90
2019-03-03T13:43:13.329Z,1.50
2019-03-03T13:46:03.150Z,1.93
2019-03-03T13:48:53.017Z,1.70
2019-03-03T13:51:42.854Z,2.17
2019-03-03T13:54:32.710Z,1.70
2019-03-03T13:57:22.549Z,1.43
2019-03-03T14:00:15.081Z,1.80
2019-03-03T14:05:49.820Z,2.17
2019-03-03T14:08:39.607Z,2.13
2019-03-03T14:14:32.785Z,1.70
2019-03-03T14:17:22.587Z,1.47
2019-03-03T14:20:14.847Z,2.30
2019-03-03T14:23:04.692Z,2.00
2019-03-03T14:25:54.644Z,1.87
2019-03-03T14:28:44.480Z,1.57
2019-03-03T14:31:34.346Z,1.90
2019-03-03T14:34:24.145Z,2.00
2019-03-03T14:37:14.840Z,1.60
2019-03-03T14:39:45.258Z,1.53
2019-03-03T14:42:15.696Z,1.60
2019-03-03T14:44:46.383Z,1.70
2019-03-03T14:47:18.482Z,1.47
2019-03-03T14:50:09.924Z,1.57
2019-03-03T14:52:40.402Z,1.90
2019-03-03T14:55:30.301Z,1.70
2019-03-03T14:58:20.592Z,1.50
2019-03-03T15:01:10.561Z,1.80
2019-03-03T15:04:00.488Z,2.17
2019-03-03T15:06:50.380Z,1.73
2019-03-03T15:09:22.094Z,1.57
2019-03-03T15:11:52.639Z,1.30
2019-03-03T15:14:24.713Z,1.60
2019-03-03T15:17:14.541Z,1.57
2019-03-03T15:20:04.336Z,1.30
2019-03-03T15:22:54.858Z,1.30
2019-03-03T15:25:25.262Z,2.43
2019-03-03T15:28:15.439Z,3.00
2019-03-03T15:31:05.232Z,1.70
2019-03-03T15:33:55.066Z,1.50
2019-03-03T15:36:44.879Z,1.40
2019-03-03T15:39:34.728Z,1.40
2019-03-03T15:42:05.355Z,0.93
2019-03-03T15:44:55.191Z,1.50
2019-03-03T15:47:45.394Z,1.10
2019-03-03T15:50:35.264Z,1.70
2019-03-03T15:56:08.932Z,1.40
2019-03-03T15:58:39.827Z,1.40
2019-03-03T16:01:29.697Z,1.30
2019-03-03T16:04:19.509Z,1.20
2019-03-03T16:07:09.336Z,1.53
2019-03-03T16:09:39.849Z,1.60
2019-03-03T16:12:29.659Z,1.80
2019-03-03T16:15:19.474Z,1.80
2019-03-03T16:18:09.431Z,1.43
2019-03-03T16:20:41.516Z,1.80
2019-03-03T16:23:31.339Z,2.37
2019-03-03T16:26:21.213Z,1.90
2019-03-03T16:29:11.379Z,1.97
2019-03-03T16:32:01.219Z,2.37
2019-03-03T16:34:50.834Z,2.30
2019-03-03T16:40:24.612Z,2.50
2019-03-03T16:43:14.470Z,2.03
2019-03-03T16:46:04.316Z,2.60
2019-03-03T16:48:54.154Z,2.53
2019-03-03T16:51:44.010Z,3.00
2019-03-03T16:54:33.841Z,9.67
2019-03-03T16:57:23.692Z,15.60
2019-03-03T16:59:55.771Z,31.70
2019-03-03T17:02:45.680Z,47.70
2019-03-03T17:05:35.541Z,29.77
2019-03-03T17:08:25.394Z,28.90
2019-03-03T17:11:15.204Z,13.70
2019-03-03T17:14:05.057Z,9.67
2019-03-03T17:16:54.940Z,10.30
2019-03-03T17:19:44.789Z,7.73
2019-03-03T17:22:34.581Z,6.57
2019-03-03T17:25:24.467Z,7.10
2019-03-03T17:28:14.667Z,8.00
2019-03-03T17:31:04.551Z,8.70
2019-03-03T17:33:54.447Z,7.70
2019-03-03T17:36:24.910Z,8.40
2019-03-03T17:39:14.728Z,8.00
2019-03-03T17:42:04.563Z,8.00
2019-03-03T17:44:35.010Z,7.80
2019-03-03T17:47:24.989Z,8.30
2019-03-03T17:50:15.994Z,8.60
2019-03-03T17:52:47.206Z,9.10
2019-03-03T17:55:37.554Z,8.30
2019-03-03T17:58:27.430Z,9.80
2019-03-03T18:01:17.360Z,9.97
2019-03-03T18:04:07.311Z,11.60
2019-03-03T18:06:38.988Z,11.30
2019-03-03T18:09:22.775Z,10.63
2019-03-03T18:12:12.738Z,10.77
2019-03-03T18:15:03.165Z,9.33
2019-03-03T18:17:53.032Z,10.93
2019-03-03T18:20:42.945Z,11.10
2019-03-03T18:23:33.020Z,10.87
2019-03-03T18:26:22.944Z,11.07
2019-03-03T18:29:13.329Z,11.33
2019-03-03T18:35:13.006Z,12.00
2019-03-03T18:38:02.706Z,11.77
2019-03-03T18:40:52.561Z,12.87
2019-03-03T18:46:26.163Z,12.83
2019-03-03T18:49:16.011Z,12.27
2019-03-03T18:52:05.909Z,12.47
2019-03-03T18:54:55.773Z,13.20
2019-03-03T18:57:26.277Z,12.40
2019-03-03T19:00:35.953Z,12.63
2019-03-03T19:03:25.804Z,12.93
2019-03-03T19:06:15.658Z,13.20
2019-03-03T19:08:46.194Z,12.60
2019-03-03T19:11:36.072Z,14.37
2019-03-03T19:14:28.591Z,14.33
2019-03-03T19:17:17.763Z,13.47
2019-03-03T19:20:09.709Z,13.50
2019-03-03T19:22:40.593Z,13.97
2019-03-03T19:25:12.216Z,13.30
2019-03-03T19:28:02.029Z,14.63
2019-03-03T19:30:51.903Z,14.53
2019-03-03T19:33:45.745Z,13.87
2019-03-03T19:36:36.567Z,13.10
2019-03-03T19:39:28.191Z,12.27
2019-03-03T19:42:18.006Z,13.77
2019-03-03T19:45:12.353Z,13.70
2019-03-03T19:47:43.542Z,13.03
2019-03-03T19:50:33.364Z,13.57
2019-03-03T19:53:23.230Z,14.10
2019-03-03T19:56:13.079Z,13.27
2019-03-03T19:59:02.968Z,15.40
2019-03-03T20:01:52.800Z,16.07
2019-03-03T20:04:42.696Z,13.70
2019-03-03T20:07:32.508Z,14.73
2019-03-03T20:10:22.348Z,15.37
2019-03-03T20:13:12.173Z,14.40
2019-03-03T20:16:02.000Z,16.37
2019-03-03T20:21:48.104Z,14.57
2019-03-03T20:24:19.322Z,16.10
2019-03-03T20:26:49.797Z,15.57
2019-03-03T20:29:20.509Z,14.00
2019-03-03T20:31:51.299Z,14.50
2019-03-03T20:34:21.772Z,16.33
2019-03-03T20:36:52.247Z,15.30
2019-03-03T20:39:22.835Z,15.23
2019-03-03T20:41:53.489Z,14.57
2019-03-03T20:44:23.922Z,16.43
2019-03-03T20:47:13.752Z,13.30
2019-03-03T20:50:03.770Z,12.63
2019-03-03T20:52:53.635Z,12.53
2019-03-03T20:55:43.490Z,13.20
2019-03-03T20:58:33.398Z,12.67
2019-03-03T21:01:03.831Z,12.67
2019-03-03T21:03:53.734Z,12.70
2019-03-03T21:06:43.608Z,11.13
2019-03-03T21:09:14.208Z,11.20
2019-03-03T21:12:03.986Z,10.27
2019-03-03T21:14:53.813Z,8.87
2019-03-03T21:17:43.599Z,9.80
2019-03-03T21:20:33.440Z,10.20
2019-03-03T21:23:23.240Z,8.40
2019-03-03T21:26:13.116Z,9.60
2019-03-03T21:29:02.980Z,8.53
2019-03-03T21:31:52.844Z,8.97
2019-03-03T21:34:42.653Z,10.63
2019-03-03T21:37:32.486Z,10.97
2019-03-03T21:40:22.348Z,9.60
2019-03-03T21:42:52.807Z,10.80
2019-03-03T21:45:23.312Z,9.07
2019-03-03T21:48:13.103Z,8.20
2019-03-03T21:51:02.906Z,7.83
2019-03-03T21:53:52.977Z,8.37
2019-03-03T21:56:42.806Z,7.27
2019-03-03T21:59:32.677Z,7.07
2019-03-03T22:02:03.100Z,6.87
2019-03-03T22:04:53.023Z,6.87
2019-03-03T22:07:43.284Z,7.40
2019-03-03T22:10:33.805Z,9.50
2019-03-03T22:13:23.689Z,7.57
2019-03-03T22:16:13.667Z,7.23
2019-03-03T22:18:44.157Z,6.63
2019-03-03T22:21:34.090Z,7.50
2019-03-03T22:24:24.107Z,8.50
2019-03-03T22:27:14.056Z,7.03
2019-03-03T22:29:44.521Z,6.33
2019-03-03T22:32:34.499Z,7.03
2019-03-03T22:35:05.284Z,7.17
2019-03-03T22:37:37.366Z,6.30
2019-03-03T22:40:27.215Z,6.20
2019-03-03T22:43:17.091Z,6.07
2019-03-03T22:46:06.933Z,6.50
2019-03-03T22:48:56.771Z,6.00
2019-03-03T22:51:46.531Z,5.40
2019-03-03T22:54:36.396Z,7.27
2019-03-03T22:57:26.207Z,6.40
2019-03-03T23:01:02.559Z,6.30
2019-03-03T23:04:31.270Z,6.63
2019-03-03T23:07:59.179Z,6.80
2019-03-03T23:10:56.165Z,5.93
2019-03-03T23:14:24.098Z,6.13
2019-03-03T23:17:52.048Z,6.23
2019-03-03T23:21:13.665Z,5.67
2019-03-03T23:24:41.630Z,5.87
2019-03-03T23:27:31.436Z,5.67
2019-03-03T23:30:21.257Z,6.10
2019-03-03T23:33:11.130Z,5.10
2019-03-03T23:36:00.920Z,6.27
2019-03-03T23:38:50.791Z,5.70
2019-03-03T23:41:40.563Z,6.40
2019-03-03T23:44:30.577Z,6.57
2019-03-03T23:47:20.415Z,6.37
2019-03-03T23:50:10.438Z,4.97
2019-03-03T23:52:40.833Z,5.40
2019-03-03T23:55:30.615Z,5.10
2019-03-03T23:58:20.405Z,5.27
